M I D A S
Marine Information and Data Acquisition System
Tripno 613 of the Zeeleeuw from 2003-12-09 07:40:17 to 2003-12-09 16:15:26
Back to CruiseResearch ActivitiesStationsMapUnderway DataData graphs

EquipmentUnitsComments
TimeDGPSUTC
LatitudeDGPSDM.mWGS84
LongitudeDGPSDM.mWGS84
SpeedMeteo Stationm/sRelative wind speed
DirectionMeteo StationdegRelative wind direction
TemperatureMeteo Stationdeg CelciusAir temperature
PressureMeteo StationPaAtmospheric pressure
HumidityMeteo Station%Relative humidity
Missing or incorrect values are displayed as -999
Metereological data collected by the RV Zeeleeuw from 2003-12-09 07:40:17 to 2003-12-09 16:15:26
Time Latitude Longitude Speed Direction Temperature Pressure Humidity
2003-12-09 07:41 51°13.546 2°56.233 3.6 124 -0.1 102030 85
2003-12-09 07:42 51°13.528 2°56.242 3.6 153 -0.1 102020 85
2003-12-09 07:43 51°13.531 2°56.238 2.4 147 -0.2 102030 85
2003-12-09 07:44 51°13.545 2°56.203 1.6 162 -0.2 102030 85
2003-12-09 07:45 51°13.558 2°56.156 1.9 158 -0.2 102030 85
2003-12-09 07:46 51°13.571 2°56.106 2.1 182 -0.2 102020 85
2003-12-09 07:47 51°13.584 2°56.061 1.8 182 -0.2 102020 85
2003-12-09 07:48 51°13.596 2°56.025 2.9 175 -0.2 102020 85
2003-12-09 07:49 51°13.606 2°56.004 2.6 171 -0.2 102020 85
2003-12-09 07:50 51°13.608 2°56 3.2 167 -0.2 102010 85
2003-12-09 07:51 51°13.609 2°55.995 3 164 -0.2 102010 85
2003-12-09 07:52 51°13.612 2°55.989 3.7 155 -0.3 102010 85
2003-12-09 07:53 51°13.624 2°55.967 3.1 157 -0.2 102010 85
2003-12-09 07:54 51°13.648 2°55.916 1.7 151 -0.2 102010 85
2003-12-09 07:55 51°13.694 2°55.814 1 151 -0.2 102010 84
2003-12-09 07:56 51°13.771 2°55.678 1.4 59 -0.2 102010 85
2003-12-09 07:57 51°13.883 2°55.587 1.9 31 -0.2 102010 85
2003-12-09 07:58 51°14.001 2°55.505 2.1 55 -0.2 102010 84
2003-12-09 07:59 51°14.123 2°55.417 1.6 40 -0.1 102010 84
2003-12-09 08:00 51°14.246 2°55.288 1.5 13 -0.1 102010 85
2003-12-09 08:01 51°14.351 2°55.088 1.1 357 -0.1 102010 85
2003-12-09 08:02 51°14.5 2°54.924 2.9 31   102000 85
2003-12-09 08:03 51°14.645 2°54.702 3.1 40 0.1 102010 85
2003-12-09 08:04 51°14.806 2°54.479 3 60 0.2 102010 85
2003-12-09 08:05 51°14.984 2°54.262 2.2 50 0.2 102000 85
2003-12-09 08:06 51°15.144 2°54.051 4.2 65 0.3 102010 84
2003-12-09 08:07 51°15.355 2°53.959 7.1 59 0.4 102000 85
2003-12-09 08:08 51°15.564 2°53.939 6.3 57 0.7 102000 85
2003-12-09 08:09 51°15.778 2°53.96 7.6 63 0.9 101990 84
2003-12-09 08:10 51°15.982 2°54.06 8.5 56 1 101980 84
2003-12-09 08:11 51°16.14 2°54.175 7.5 65 1.1 101990 84
2003-12-09 08:12 51°16.223 2°54.261 7.1 68 1.2 102010 83
2003-12-09 08:13 51°16.254 2°54.325 6.6 63 1.3 102010 83
2003-12-09 08:14 51°16.25 2°54.325 6.5 48 1.4 101990 82
2003-12-09 08:15 51°16.241 2°54.303 5.8 47 1.3 102010 82
2003-12-09 08:16 51°16.228 2°54.271 5.7 44 1.4 102020 82
2003-12-09 08:17 51°16.219 2°54.251 6.2 49 1.4 102020 83
2003-12-09 08:18 51°16.21 2°54.24 6.3 50 1.4 102010 81
2003-12-09 08:19 51°16.202 2°54.237 6.6 57 1.4 102010 82
2003-12-09 08:20 51°16.198 2°54.238 6.6 67 1.3 102020 81
2003-12-09 08:21 51°16.199 2°54.243 6.4 69 1.4 102010 82
2003-12-09 08:22 51°16.204 2°54.253 5.6 71 1.5 102020 82
2003-12-09 08:23 51°16.267 2°54.253 3.8 146 1.5 102010 82
2003-12-09 08:24 51°16.35 2°54.045 1.4 25 1.5 102020 81
2003-12-09 08:26 51°16.522 2°53.621 1.3 23 1.6 102020 80
2003-12-09 08:27 51°16.66 2°53.319 1.8 36 1.6 102020 80
2003-12-09 08:28 51°16.814 2°53.046 2 73 1.7 102020 80
2003-12-09 08:29 51°16.958 2°52.782 1.5 78 1.8 102020 80
2003-12-09 08:30 51°17.127 2°52.546 2.3 52 1.9 102010 79
2003-12-09 08:31 51°17.295 2°52.304 2.6 73 2 102020 81
2003-12-09 08:32 51°17.466 2°52.053 2.8 57 2.1 102020 79
2003-12-09 08:33 51°17.63 2°51.81 2.5 75 2.2 102020 80
2003-12-09 08:34 51°17.796 2°51.566 2.2 54 2.3 102010 79
2003-12-09 08:35 51°17.965 2°51.317 2.2 43 2.4 102010 79
2003-12-09 08:36 51°18.138 2°51.057 2.4 70 2.4 102010 79
2003-12-09 08:37 51°18.299 2°50.894 4.8 80 2.5 102010 79
2003-12-09 08:38 51°18.425 2°50.941 7.2 66 2.6 102010 77
2003-12-09 08:39 51°18.487 2°50.996 6.1 85 2.7 102020 78
2003-12-09 08:40 51°18.511 2°51.004 6.1 116 2.7 102010 77
2003-12-09 08:41 51°18.521 2°50.982 5.8 113 2.8 102020 76
2003-12-09 08:42 51°18.528 2°50.964 6.3 99 2.8 102020 76
2003-12-09 08:43 51°18.529 2°50.953 6.8 87 2.8 102020 76
2003-12-09 08:44 51°18.526 2°50.944 5.6 79 2.8 102020 74
2003-12-09 08:45 51°18.52 2°50.937 6.6 63 2.8 102020 75
2003-12-09 08:46 51°18.511 2°50.929 6.1 52 2.8 102020 74
2003-12-09 08:47 51°18.501 2°50.923 5.8 47 2.8 102020 74
2003-12-09 08:48 51°18.491 2°50.918 5.2 71 2.9 102020 76
2003-12-09 08:49 51°18.506 2°50.941 6.1 96 2.9 102010 74
2003-12-09 08:50 51°18.579 2°50.788 5.1 287 2.9 102010 75
2003-12-09 08:51 51°18.452 2°50.541 10.5 333 3 102000 75
2003-12-09 08:52 51°18.221 2°50.423 12.3 337 2.9 101990 74
2003-12-09 08:53 51°17.986 2°50.306 11.3 335 2.9 101990 74
2003-12-09 08:54 51°17.742 2°50.185 11.3 336 2.9 101990 75
2003-12-09 08:55 51°17.504 2°50.067 11.2 341 2.9 101990 75
2003-12-09 08:56 51°17.274 2°49.928 11.3 331 2.8 101990 76
2003-12-09 08:57 51°17.046 2°49.76 10.5 332 2.7 101990 76
2003-12-09 08:58 51°16.827 2°49.579 10.7 325 2.6 101990 76
2003-12-09 08:59 51°16.607 2°49.374 10.9 328 2.6 101990 77
2003-12-09 09:00 51°16.409 2°49.138 9.5 332 2.5 101990 76
2003-12-09 09:01 51°16.208 2°48.892 9 332 2.5 101990 76
2003-12-09 09:02 51°16.015 2°48.654 9.3 330 2.5 101990 75
2003-12-09 09:03 51°15.817 2°48.416 8.9 331 2.5 101990 75
2003-12-09 09:04 51°15.62 2°48.177 9.4 325 2.5 101990 73
2003-12-09 09:05 51°15.42 2°47.941 9.1 331 2.6 101980 73
2003-12-09 09:06 51°15.227 2°47.706 10.1 328 2.7 101980 71
2003-12-09 09:07 51°15.044 2°47.469 9.9 321 2.7 101980 71
2003-12-09 09:08 51°14.852 2°47.198 10 330 2.7 101970 70
2003-12-09 09:09 51°14.674 2°46.942 9 326 2.7 101980 70
2003-12-09 09:10 51°14.485 2°46.667 9.4 330 2.6 101980 71
2003-12-09 09:11 51°14.305 2°46.41 9.7 330 2.5 101980 71
2003-12-09 09:12 51°14.123 2°46.146 8.8 332 2.4 101980 72
2003-12-09 09:13 51°13.937 2°45.894 8.6 328 2.3 101980 73
2003-12-09 09:14 51°13.75 2°45.654 8.4 328 2.2 101970 74
2003-12-09 09:15 51°13.558 2°45.43 9.5 334 2.2 101970 75
2003-12-09 09:16 51°13.365 2°45.184 9.5 331 2.1 101970 75
2003-12-09 09:17 51°13.178 2°44.931 8.9 331 2 101960 75
2003-12-09 09:18 51°12.994 2°44.683 8.6 334 1.9 101960 75
2003-12-09 09:19 51°12.8 2°44.424 8.2 332 1.9 101960 75
2003-12-09 09:20 51°12.613 2°44.174 8.2 335 1.9 101960 75
2003-12-09 09:21 51°12.428 2°43.925 8.8 331 2 101960 74
2003-12-09 09:22 51°12.249 2°43.668 8.4 332 2.1 101960 74
2003-12-09 09:23 51°12.075 2°43.411 8.1 335 2 101960 73
2003-12-09 09:24 51°11.897 2°43.149 7.7 338 2 101970 74
2003-12-09 09:25 51°11.719 2°42.895 7.7 338 1.9 101970 74
2003-12-09 09:26 51°11.538 2°42.636 7.5 339 1.9 101960 75
2003-12-09 09:27 51°11.365 2°42.382 7.3 339 1.8 101970 75
2003-12-09 09:28 51°11.202 2°42.215 5.7 321 1.8 101990 76
2003-12-09 09:29 51°11.103 2°42.179 4.9 328 1.8 101990 76
2003-12-09 09:30 51°11.077 2°42.17 3.6 336 1.8 101980 75
2003-12-09 09:31 51°11.072 2°42.152 3.5 228 1.8 102000 75
2003-12-09 09:32 51°11.067 2°42.137 3.8 303 1.9 101990 75
2003-12-09 09:33 51°11.061 2°42.121 4 274 1.9 101960 75
2003-12-09 09:34 51°11.055 2°42.104 5 267 1.9 101960 76
2003-12-09 09:35 51°11.049 2°42.086 3.6 259 1.9 101960 75
2003-12-09 09:36 51°11.041 2°42.064 1.6 251 1.9 101970 76
2003-12-09 09:37 51°11.034 2°42.036 3.7 237 1.9 101960 75
2003-12-09 09:38 51°11.035 2°41.965 1 220 1.8 101960 75
2003-12-09 09:39 51°11.015 2°41.715 4.7 331 1.9 101920 75
2003-12-09 09:40 51°10.937 2°41.374 5.1 344 1.9 101920 75
2003-12-09 09:41 51°10.853 2°41.016 5.7 340 1.9 101910 76
2003-12-09 09:42 51°10.774 2°40.674 5.3 334 1.9 101910 76
2003-12-09 09:43 51°10.693 2°40.323 5.3 327 1.9 101900 76
2003-12-09 09:44 51°10.606 2°39.948 6 331 1.9 101900 76
2003-12-09 09:45 51°10.529 2°39.586 6.5 325 1.9 101900 76
2003-12-09 09:46 51°10.454 2°39.235 6.6 41 2 101890 76
2003-12-09 09:47 51°10.391 2°38.867 5.8 320 2 101890 76
2003-12-09 09:48 51°10.337 2°38.49 5.2 327 2 101890 76
2003-12-09 09:49 51°10.282 2°38.116 6 337 2.1 101890 76
2003-12-09 09:50 51°10.23 2°37.762 6.7 327 2.2 101900 76
2003-12-09 09:51 51°10.174 2°37.382 6.7 323 2.3 101890 75
2003-12-09 09:52 51°10.121 2°37.014 6 316 2.4 101880 75
2003-12-09 09:53 51°10.083 2°36.639 5.6 321 2.4 101890 75
2003-12-09 09:54 51°10.063 2°36.274 4.9 316 2.4 101890 74
2003-12-09 09:55 51°10.129 2°35.907 2.2 7 2.5 101890 74
2003-12-09 09:56 51°10.302 2°35.698 4.6 72 2.5 101880 74
2003-12-09 09:57 51°10.509 2°35.685 8.5 60 2.4 101880 73
2003-12-09 09:58 51°10.707 2°35.884 9.7 49 2.4 101860 74
2003-12-09 09:59 51°10.893 2°36.091 9.9 50 2.5 101880 75
2003-12-09 10:00 51°11.089 2°36.318 9 42 2.6 101870 74
2003-12-09 10:01 51°11.275 2°36.536 9.8 42 2.6 101870 75
2003-12-09 10:02 51°11.458 2°36.745 9.6 44 2.5 101870 74
2003-12-09 10:03 51°11.656 2°36.973 9 49 2.5 101870 74
2003-12-09 10:04 51°11.832 2°37.176 9 48 2.5 101860 75
2003-12-09 10:05 51°12.02 2°37.376 9.1 46 2.5 101860 75
2003-12-09 10:06 51°12.214 2°37.582 9.2 53 2.5 101860 75
2003-12-09 10:07 51°12.401 2°37.78 8.9 49 2.5 101860 74
2003-12-09 10:08 51°12.587 2°37.977 9.4 50 2.5 101920 74
2003-12-09 10:09 51°12.78 2°38.154 8.2 49 2.6 101860 73
2003-12-09 10:10 51°12.991 2°38.311 8.3 49 2.7 101860 74
2003-12-09 10:11 51°13.19 2°38.459 9 51 2.8 101850 74
2003-12-09 10:12 51°13.404 2°38.601 8.3 48 2.8 101860 73
2003-12-09 10:13 51°13.62 2°38.722 6.8 52 2.9 101860 73
2003-12-09 10:14 51°13.846 2°38.787 6.8 56 3 101860 73
2003-12-09 10:15 51°14.055 2°38.737 4.1 52 3.1 101860 72
2003-12-09 10:16 51°14.259 2°38.596 4.4 43 3.2 101870 71
2003-12-09 10:17 51°14.466 2°38.457 4.7 39 3.2 101870 72
2003-12-09 10:18 51°14.669 2°38.292 4 44 3.3 101860 72
2003-12-09 10:19 51°14.867 2°38.136 4.2 39 3.3 101870 71
2003-12-09 10:20 51°15.072 2°37.979 5.3 50 3.4 101870 71
2003-12-09 10:21 51°15.27 2°37.834 4 49 3.4 101860 71
2003-12-09 10:22 51°15.481 2°37.683 4.2 50 3.4 101860 72
2003-12-09 10:23 51°15.678 2°37.546 4.8 44 3.4 101860 70
2003-12-09 10:24 51°15.881 2°37.401 4.2 43 3.4 101860 70
2003-12-09 10:25 51°16.093 2°37.243 4.1 39 3.4 101860 70
2003-12-09 10:26 51°16.299 2°37.091 3.6 28 3.5 101860 70
2003-12-09 10:27 51°16.497 2°36.899 3.9 27 3.6 101860 71
2003-12-09 10:28 51°16.629 2°36.771 2.4 112 3.7 101900 71
2003-12-09 10:29 51°16.651 2°36.763 3.6 199 3.7 101900 70
2003-12-09 10:30 51°16.65 2°36.777 2.4 181 3.9 101890 67
2003-12-09 10:31 51°16.651 2°36.782 2.2 194 4.3 101890 68
2003-12-09 10:32 51°16.657 2°36.783 2.3 195 4.6 101890 66
2003-12-09 10:33 51°16.663 2°36.779 3.4 203 4.4 101890 66
2003-12-09 10:34 51°16.67 2°36.772 2.7 198 4.4 101880 69
2003-12-09 10:35 51°16.677 2°36.761 3.8 214 4.6 101880 70
2003-12-09 10:36 51°16.682 2°36.744 4.7 218 4.4 101880 68
2003-12-09 10:37 51°16.686 2°36.725 4.2 243 4.4 101870 69
2003-12-09 10:38 51°16.688 2°36.705 2.8 254 4.4 101870 67
2003-12-09 10:39 51°16.688 2°36.686 2.7 253 4.4 101870 67
2003-12-09 10:40 51°16.686 2°36.667 2.9 255 4.3 101860 64
2003-12-09 10:41 51°16.684 2°36.652 5.1 260 4.3 101860 66
2003-12-09 10:42 51°16.681 2°36.64 4.7 263 4.3 101860 65
2003-12-09 10:43 51°16.678 2°36.631 5.1 279 4.3 101860 67
2003-12-09 10:44 51°16.673 2°36.624 4.1 290 4.4 101860 67
2003-12-09 10:45 51°16.666 2°36.621 4.8 300 4.4 101860 65
2003-12-09 10:46 51°16.641 2°36.605 5.4 310 4.4 101860 66
2003-12-09 10:47 51°16.566 2°36.474 6.4 315 4.4 101820 65
2003-12-09 10:48 51°16.545 2°36.198 3 324 4.4 101840 65
2003-12-09 10:49 51°16.668 2°35.966 2.6 22 4.3 101840 65
2003-12-09 10:50 51°16.829 2°35.711 3.7 13 4.2 101820 65
2003-12-09 10:51 51°16.987 2°35.467 4 5 4.2 101820 66
2003-12-09 10:52 51°17.147 2°35.225 3.2 1 4.2 101830 69
2003-12-09 10:53 51°17.301 2°35.001 4.1 347 4.3 101830 68
2003-12-09 10:54 51°17.462 2°34.768 3 3 4.2 101830 67
2003-12-09 10:55 51°17.63 2°34.532 4.5 357 4.2 101830 67
2003-12-09 10:56 51°17.795 2°34.294 4.2 353 4.2 101830 67
2003-12-09 10:57 51°17.953 2°34.045 4.5 352 4.2 101830 65
2003-12-09 10:58 51°18.09 2°33.754 4 349 4.2 101830 66
2003-12-09 10:59 51°18.227 2°33.466 4.9 347 4.3 101830 67
2003-12-09 11:00 51°18.359 2°33.189 4.7 342 4.3 101820 69
2003-12-09 11:01 51°18.492 2°32.908 4.7 352 4.3 101820 67
2003-12-09 11:02 51°18.631 2°32.617 5.6 347 4.4 101820 69
2003-12-09 11:03 51°18.772 2°32.32 4.8 346 4.4 101810 68
2003-12-09 11:04 51°18.907 2°32.034 4.5 349 4.5 101810 68
2003-12-09 11:05 51°19.047 2°31.74 4.8 345 4.5 101820 69
2003-12-09 11:06 51°19.181 2°31.453 4.3 340 4.6 101810 68
2003-12-09 11:07 51°19.324 2°31.152 5.1 347 4.6 101810 66
2003-12-09 11:08 51°19.464 2°30.875 5.2 351 4.6 101820 67
2003-12-09 11:09 51°19.601 2°30.606 4.3 346 4.7 101820 70
2003-12-09 11:10 51°19.74 2°30.339 3 349 4.7 101820 70
2003-12-09 11:11 51°19.833 2°30.199 0.8 349 4.8 101870 70
2003-12-09 11:12 51°19.885 2°30.124 1.6 249 4.9 101870 70
2003-12-09 11:13 51°19.925 2°30.068 1.7 286 4.9 101870 69
2003-12-09 11:14 51°19.982 2°30.006 1.6 204 5 101850 70
2003-12-09 11:15 51°20.002 2°30.032 1.5 185 5 101860 68
2003-12-09 11:16 51°20.016 2°30.07 2.4 182 5.1 101870 66
2003-12-09 11:17 51°20.039 2°30.101 2.7 223 5.1 101870 68
2003-12-09 11:18 51°20.058 2°30.111 2.9 257 5.1 101870 67
2003-12-09 11:19 51°20.062 2°30.115 3.9 271 5.1 101870 68
2003-12-09 11:20 51°20.056 2°30.123 4.5 275 5.1 101860 67
2003-12-09 11:21 51°20.044 2°30.128 4.4 289 5.1 101860 68
2003-12-09 11:22 51°20.03 2°30.138 3.5 297 5.1 101850 68
2003-12-09 11:23 51°20.017 2°30.152 5 301 5.1 101850 69
2003-12-09 11:24 51°20.003 2°30.17 4.2 294 5.1 101850 69
2003-12-09 11:25 51°19.989 2°30.19 4.1 290 5.1 101850 68
2003-12-09 11:26 51°19.983 2°30.198 3 258 5 101850 67
2003-12-09 11:27 51°19.989 2°30.2 3.9 254 5 101840 69
2003-12-09 11:28 51°19.991 2°30.2 4.4 262 5 101840 69
2003-12-09 11:29 51°19.985 2°30.181 4.8 288 5 101840 70
2003-12-09 11:30 51°20.039 2°30.103 3.3 83 5 101820 69
2003-12-09 11:31 51°20.144 2°30.259 6.5 56 5 101810 69
2003-12-09 11:32 51°20.255 2°30.572 9.8 36 4.8 101770 70
2003-12-09 11:33 51°20.368 2°30.94 9.5 31 4.7 101780 69
2003-12-09 11:34 51°20.486 2°31.317 9.8 32 4.7 101770 69
2003-12-09 11:35 51°20.604 2°31.684 9.6 33 4.7 101770 68
2003-12-09 11:36 51°20.72 2°32.035 8.6 31 4.7 101780 69
2003-12-09 11:37 51°20.843 2°32.398 9 32 4.8 101770 71
2003-12-09 11:38 51°20.962 2°32.764 8.9 22 4.8 101770 69
2003-12-09 11:39 51°21.077 2°33.117 8.2 30 4.9 101780 68
2003-12-09 11:40 51°21.194 2°33.484 8.9 27 5 101770 69
2003-12-09 11:41 51°21.308 2°33.838 9.8 30 5.1 101780 70
2003-12-09 11:42 51°21.421 2°34.19 9.2 35 5.1 101770 69
2003-12-09 11:43 51°21.539 2°34.561 9.1 27 5.2 101770 70
2003-12-09 11:44 51°21.654 2°34.918 10 31 5.2 101760 70
2003-12-09 11:45 51°21.766 2°35.272 9.7 28 5.2 101760 69
2003-12-09 11:46 51°21.885 2°35.632 9.1 29 5.2 101760 70
2003-12-09 11:47 51°22.007 2°35.996 9.8 24 5.3 101760 70
2003-12-09 11:48 51°22.128 2°36.362 9.3 27 5.3 101760 69
2003-12-09 11:49 51°22.248 2°36.723 9.2 25 5.4 101750 71
2003-12-09 11:50 51°22.37 2°37.091 9.8 24 5.4 101750 71
2003-12-09 11:51 51°22.495 2°37.465 10.6 25 5.4 101760 71
2003-12-09 11:52 51°22.615 2°37.827 9.6 28 5.4 101770 71
2003-12-09 11:53 51°22.732 2°38.183 10.1 26 5.4 101770 72
2003-12-09 11:54 51°22.853 2°38.543 10 31 5.4 101770 72
2003-12-09 11:55 51°22.972 2°38.906 10.2 26 5.4 101760 72
2003-12-09 11:56 51°23.094 2°39.268 9.9 27 5.4 101750 72
2003-12-09 11:57 51°23.217 2°39.633 10.5 26 5.3 101760 71
2003-12-09 11:58 51°23.339 2°39.997 10 24 5.3 101760 70
2003-12-09 11:59 51°23.46 2°40.362 9.9 28 5.3 101760 72
2003-12-09 12:00 51°23.581 2°40.717 9.5 20 5.2 101760 71
2003-12-09 12:01 51°23.705 2°41.084 10.8 19 5.2 101760 72
2003-12-09 12:02 51°23.829 2°41.449 9.6 22 5.3 101760 72
2003-12-09 12:03 51°23.952 2°41.809 9.2 21 5.3 101750 72
2003-12-09 12:04 51°24.071 2°42.165 9.4 22 5.2 101760 72
2003-12-09 12:05 51°24.194 2°42.533 9.2 24 5.3 101750 72
2003-12-09 12:06 51°24.312 2°42.888 9.8 22 5.2 101760 72
2003-12-09 12:07 51°24.431 2°43.245 9 20 5.2 101760 73
2003-12-09 12:08 51°24.555 2°43.619 9.9 26 5.3 101750 73
2003-12-09 12:09 51°24.672 2°43.968 9.7 22 5.2 101750 73
2003-12-09 12:10 51°24.797 2°44.341 10.1 23 5.3 101760 72
2003-12-09 12:11 51°24.913 2°44.69 10 24 5.3 101760 72
2003-12-09 12:12 51°25.033 2°45.049 10.1 21 5.3 101760 72
2003-12-09 12:13 51°25.157 2°45.422 9.5 30 5.3 101750 72
2003-12-09 12:14 51°25.278 2°45.783 10.3 28 5.3 101740 72
2003-12-09 12:15 51°25.42 2°46.203 10.5 25 5.3 101750 73
2003-12-09 12:16 51°25.543 2°46.57 10.1 26 5.4 101750 72
2003-12-09 12:17 51°25.663 2°46.923 9.7 25 5.3 101740 72
2003-12-09 12:18 51°25.795 2°47.274 9.6 22 5.3 101800 71
2003-12-09 12:19 51°25.93 2°47.63 9.9 21 5.3 101740 71
2003-12-09 12:20 51°26.053 2°47.951 8.4 31 5.3 101770 74
2003-12-09 12:21 51°26.109 2°48.198 6.9 12 5.4 101800 74
2003-12-09 12:22 51°26.077 2°48.347 6.8 347 5.4 101800 72
2003-12-09 12:23 51°26.028 2°48.435 5.1 327 5.4 101800 73
2003-12-09 12:24 51°26.013 2°48.495 4.4 349 5.5 101800 74
2003-12-09 12:25 51°26.018 2°48.55 4.3 3 5.5 101810 73
2003-12-09 12:26 51°26.028 2°48.611 4.1 41 5.4 101810 71
2003-12-09 12:27 51°26.05 2°48.676 4.3 63 5.3 101810 72
2003-12-09 12:28 51°26.094 2°48.734 2.9 104 5.2 101810 73
2003-12-09 12:29 51°26.148 2°48.678 3.1 285 5.2 101800 73
2003-12-09 12:30 51°26.095 2°48.578 3.2 228 5.3 101800 73
2003-12-09 12:31 51°26.044 2°48.506 3.2 290 5.3 101810 74
2003-12-09 12:32 51°26.037 2°48.496 1.9 255 5.3 101810 73
2003-12-09 12:33 51°26.039 2°48.491 2 257 5.3 101810 72
2003-12-09 12:34 51°26.035 2°48.495 3 273 5.3 101810 73
2003-12-09 12:35 51°26.033 2°48.492 2.8 279 5.4 101810 72
2003-12-09 12:36 51°26.032 2°48.484 2.6 252 5.3 101810 72
2003-12-09 12:37 51°26.031 2°48.474 2.8 258 5.3 101810 72
2003-12-09 12:38 51°26.028 2°48.463 3 268 5.2 101810 72
2003-12-09 12:39 51°26.024 2°48.45 3.4 286 5.3 101800 72
2003-12-09 12:40 51°26.037 2°48.295 2.2 38 5.3 101770 72
2003-12-09 12:41 51°26.191 2°48.367 7.9 24 5.3 101760 73
2003-12-09 12:42 51°26.303 2°48.714 9.9 22 5.2 101740 72
2003-12-09 12:43 51°26.359 2°49.103 9.9 15 5.2 101740 72
2003-12-09 12:44 51°26.403 2°49.512 11 17 5.2 101740 73
2003-12-09 12:45 51°26.444 2°49.911 9.9 16 5.2 101730 72
2003-12-09 12:46 51°26.487 2°50.323 10.3 11 5.1 101740 72
2003-12-09 12:47 51°26.526 2°50.728 10.3 20 5.1 101730 71
2003-12-09 12:48 51°26.569 2°51.153 11.3 15 5.1 101730 69
2003-12-09 12:49 51°26.619 2°51.562 11.6 16 5.1 101730 69
2003-12-09 12:50 51°26.666 2°51.965 11.1 17 5 101730 68
2003-12-09 12:51 51°26.72 2°52.36 10.6 15 5 101730 66
2003-12-09 12:52 51°26.778 2°52.762 10.4 16 5 101720 64
2003-12-09 12:53 51°26.836 2°53.163 10.5 18 5 101720 64
2003-12-09 12:54 51°26.899 2°53.57 10.6 14 5 101720 65
2003-12-09 12:55 51°26.96 2°53.976 10.8 16 5 101720 65
2003-12-09 12:56 51°27.023 2°54.379 10.8 17 5 101720 65
2003-12-09 12:57 51°27.085 2°54.77 10.6 17 5 101720 65
2003-12-09 12:58 51°27.15 2°55.188 10.9 13 5 101720 65
2003-12-09 12:59 51°27.211 2°55.589 10.1 11 5 101710 64
2003-12-09 13:00 51°27.273 2°55.99 10.7 11 5.1 101720 65
2003-12-09 13:01 51°27.334 2°56.384 10.1 11 5.1 101710 67
2003-12-09 13:02 51°27.396 2°56.786 11.5 13 5.1 101720 67
2003-12-09 13:03 51°27.458 2°57.184 10.1 7 5.1 101710 67
2003-12-09 13:04 51°27.52 2°57.59 10.7 10 5.1 101720 68
2003-12-09 13:05 51°27.582 2°57.996 10.1 10 5 101720 67
2003-12-09 13:06 51°27.643 2°58.394 10.7 9 5 101720 66
2003-12-09 13:07 51°27.702 2°58.788 10.1 5 5.1 101720 66
2003-12-09 13:08 51°27.759 2°59.18 10.6 13 5.1 101720 66
2003-12-09 13:09 51°27.816 2°59.571 11.1 14 5 101720 65
2003-12-09 13:10 51°27.876 2°59.962 10.6 10 5.1 101720 65
2003-12-09 13:11 51°27.935 3°0.349 10.2 10 5.1 101720 66
2003-12-09 13:12 51°27.994 3°0.743 10.8 12 5.1 101720 67
2003-12-09 13:13 51°28.054 3°1.133 10.3 8 5.1 101720 68
2003-12-09 13:14 51°28.116 3°1.543 10.4 10 5.1 101720 66
2003-12-09 13:15 51°28.176 3°1.928 11 11 5.1 101720 68
2003-12-09 13:16 51°28.242 3°2.343 11.4 9 5.1 101720 66
2003-12-09 13:17 51°28.303 3°2.734 11.3 11 5.1 101710 65
2003-12-09 13:18 51°28.367 3°3.124 8.5 12 5.1 101710 66
2003-12-09 13:19 51°28.366 3°3.342 4.9 344 5.1 101790 67
2003-12-09 13:20 51°28.304 3°3.42 3.9 319 5.1 101740 68
2003-12-09 13:21 51°28.275 3°3.421 1.9 216 5.2 101740 67
2003-12-09 13:22 51°28.289 3°3.431 1.8 203 5.2 101760 68
2003-12-09 13:23 51°28.299 3°3.429 2 242 5.2 101760 67
2003-12-09 13:24 51°28.296 3°3.426 1.9 257 5.2 101770 65
2003-12-09 13:25 51°28.282 3°3.431 2.5 263 5.2 101760 64
2003-12-09 13:26 51°28.264 3°3.435 3.1 278 5.2 101750 66
2003-12-09 13:27 51°28.248 3°3.426 1.3 231 5.3 101760 66
2003-12-09 13:28 51°28.252 3°3.408 1.5 217 5.2 101760 65
2003-12-09 13:29 51°28.264 3°3.397 1.7 221 5.3 101770 66
2003-12-09 13:30 51°28.275 3°3.395 2.1 225 5.3 101750 68
2003-12-09 13:31 51°28.282 3°3.402 3.3 264 5.3 101750 65
2003-12-09 13:32 51°28.254 3°3.446 4.6 328 5.3 101760 67
2003-12-09 13:33 51°28.169 3°3.649 9.1 353 5.4 101680 66
2003-12-09 13:34 51°28.045 3°3.98 9.2 352 5.4 101680 66
2003-12-09 13:35 51°27.915 3°4.295 9.2 352 5.4 101690 67
2003-12-09 13:36 51°27.787 3°4.592 9.6 352 5.3 101680 66
2003-12-09 13:37 51°27.653 3°4.893 9.1 348 5.3 101680 65
2003-12-09 13:38 51°27.515 3°5.202 9.7 352 5.3 101680 66
2003-12-09 13:39 51°27.383 3°5.512 9.6 350 5.3 101670 66
2003-12-09 13:40 51°27.266 3°5.834 9.7 351 5.3 101670 63
2003-12-09 13:41 51°27.154 3°6.145 9 349 5.3 101660 65
2003-12-09 13:42 51°27.033 3°6.476 9.1 348 5.3 101660 67
2003-12-09 13:43 51°26.921 3°6.784 8.9 345 5.2 101650 65
2003-12-09 13:44 51°26.801 3°7.107 8 345 5.2 101650 64
2003-12-09 13:45 51°26.721 3°7.416 7.1 343 5.2 101690 64
2003-12-09 13:46 51°26.652 3°7.624 5.5 329 5.2 101690 65
2003-12-09 13:47 51°26.581 3°7.822 6.5 343 5.1 101680 67
2003-12-09 13:48 51°26.54 3°8.084 6.6 341 5.1 101680 66
2003-12-09 13:49 51°26.48 3°8.235 2.8 292 5.1 101720 65
2003-12-09 13:50 51°26.442 3°8.255 2.5 218 5.1 101700 66
2003-12-09 13:51 51°26.443 3°8.268 2.1 228 5.1 101700 67
2003-12-09 13:52 51°26.446 3°8.277 1.2 176 5.1 101710 67
2003-12-09 13:53 51°26.451 3°8.284 2.3 172 5.2 101710 68
2003-12-09 13:54 51°26.456 3°8.29 1.8 174 5.2 101710 68
2003-12-09 13:55 51°26.462 3°8.296 1.8 193 5.4 101710 67
2003-12-09 13:56 51°26.469 3°8.302 2 203 5.5 101710 65
2003-12-09 13:57 51°26.471 3°8.305 1.3 214 5.3 101700 65
2003-12-09 13:58 51°26.404 3°8.308 4.4 322 5.3 101670 66
2003-12-09 13:59 51°26.345 3°8.534 7.7 336 5.3 101660 66
2003-12-09 14:00 51°26.248 3°8.846 8.2 340 5.2 101640 68
2003-12-09 14:01 51°26.157 3°9.188 8 347 5.3 101650 69
2003-12-09 14:02 51°26.072 3°9.539 8 347 5.3 101640 69
2003-12-09 14:03 51°25.982 3°9.883 9.2 346 5.3 101640 68
2003-12-09 14:04 51°25.89 3°10.226 8.1 345 5.2 101640 67
2003-12-09 14:05 51°25.797 3°10.582 8.1 339 5.2 101640 67
2003-12-09 14:06 51°25.707 3°10.914 8 338 5.2 101640 68
2003-12-09 14:07 51°25.629 3°11.269 8.3 343 5.2 101640 69
2003-12-09 14:08 51°25.566 3°11.637 9.2 346 5.2 101630 68
2003-12-09 14:09 51°25.514 3°12.026 9.4 348 5.2 101680 68
2003-12-09 14:10 51°25.484 3°12.408 9.5 346 5.2 101680 69
2003-12-09 14:11 51°25.49 3°12.798 9.7 347 5.2 101670 69
2003-12-09 14:12 51°25.499 3°13.177 9.8 347 5.2 101680 70
2003-12-09 14:13 51°25.515 3°13.577 10 346 5.2 101680 70
2003-12-09 14:14 51°25.538 3°13.961 10 347 5.3 101670 70
2003-12-09 14:15 51°25.565 3°14.351 9.8 344 5.3 101670 70
2003-12-09 14:16 51°25.591 3°14.747 10.2 348 5.3 101670 70
2003-12-09 14:17 51°25.615 3°15.131 9.7 341 5.3 101670 68
2003-12-09 14:18 51°25.641 3°15.519 10 346 5.3 101670 69
2003-12-09 14:19 51°25.665 3°15.909 10.6 341 5.4 101660 70
2003-12-09 14:20 51°25.7 3°16.297 10.7 342 5.4 101610 67
2003-12-09 14:21 51°25.738 3°16.685 10.1 344 5.4 101610 68
2003-12-09 14:22 51°25.778 3°17.073 10.8 345 5.4 101610 68
2003-12-09 14:23 51°25.837 3°17.431 10 350 5.4 101640 67
2003-12-09 14:24 51°25.922 3°17.624 7.2 329 5.4 101660 67
2003-12-09 14:25 51°25.924 3°17.748 5.2 286 5.4 101660 68
2003-12-09 14:26 51°25.916 3°17.804 4.5 238 5.4 101650 67
2003-12-09 14:27 51°25.916 3°17.826 4 234 5.4 101680 69
2003-12-09 14:28 51°25.909 3°17.842 3.2 204 5.4 101660 67
2003-12-09 14:29 51°25.901 3°17.848 2.6 197 5.4 101660 67
2003-12-09 14:30 51°25.897 3°17.848 3.9 172 5.5 101660 68
2003-12-09 14:31 51°25.894 3°17.846 4.4 176 5.5 101660 65
2003-12-09 14:32 51°25.891 3°17.841 4.2 167 5.4 101660 61
2003-12-09 14:33 51°25.887 3°17.837 5.1 161 5.4 101650 64
2003-12-09 14:34 51°25.865 3°17.815 2 213 5.3 101640 62
2003-12-09 14:35 51°25.765 3°17.795 1.6 269 5.4 101660 64
2003-12-09 14:36 51°25.591 3°17.75 1.5 332 5.4 101620 64
2003-12-09 14:37 51°25.39 3°17.695 3.7 330 5.5 101600 64
2003-12-09 14:38 51°25.163 3°17.741 4.5 333 5.4 101600 63
2003-12-09 14:39 51°24.948 3°17.742 2.3 343 5.4 101590 61
2003-12-09 14:40 51°24.757 3°17.556 2.8 46 5.4 101600 62
2003-12-09 14:41 51°24.618 3°17.284 4 51 5.4 101590 65
2003-12-09 14:42 51°24.478 3°17.005 4.4 41 5.4 101590 64
2003-12-09 14:43 51°24.33 3°16.722 4.4 39 5.4 101600 64
2003-12-09 14:44 51°24.181 3°16.456 4.3 47 5.4 101600 65
2003-12-09 14:45 51°24.031 3°16.187 4.3 38 5.4 101600 63
2003-12-09 14:46 51°23.888 3°15.92 4.6 50 5.4 101600 67
2003-12-09 14:47 51°23.763 3°15.63 5 55 5.4 101600 64
2003-12-09 14:48 51°23.636 3°15.342 4.5 54 5.4 101610 64
2003-12-09 14:49 51°23.51 3°15.056 5.1 53 5.4 101610 66
2003-12-09 14:50 51°23.384 3°14.771 4 54 5.4 101610 65
2003-12-09 14:51 51°23.261 3°14.495 4.6 43 5.4 101610 67
2003-12-09 14:52 51°23.129 3°14.2 4.9 49 5.4 101610 66
2003-12-09 14:53 51°23.004 3°13.923 5 53 5.4 101610 67
2003-12-09 14:54 51°22.871 3°13.626 4.3 43 5.4 101610 66
2003-12-09 14:55 51°22.73 3°13.37 2.5 35 5.4 101610 67
2003-12-09 14:56 51°22.621 3°13.241 1.7 135 5.5 101660 68
2003-12-09 14:57 51°22.602 3°13.21 4.5 111 5.5 101640 69
2003-12-09 14:58 51°22.603 3°13.208 4.4 109 5.5 101660 68
2003-12-09 14:59 51°22.606 3°13.196 4.3 127 5.5 101660 64
2003-12-09 15:00 51°22.606 3°13.178 4.2 143 5.5 101660 63
2003-12-09 15:01 51°22.598 3°13.161 3.4 160 5.5 101660 64
2003-12-09 15:02 51°22.583 3°13.155 3 197 5.5 101660 66
2003-12-09 15:03 51°22.566 3°13.16 4 217 5.7 101660 65
2003-12-09 15:04 51°22.551 3°13.173 4.1 229 5.6 101660 65
2003-12-09 15:05 51°22.532 3°13.194 3.1 256 5.6 101670 64
2003-12-09 15:06 51°22.463 3°13.159 2.1 112 5.6 101630 65
2003-12-09 15:07 51°22.398 3°12.887 5.7 58 5.6 101610 67
2003-12-09 15:08 51°22.359 3°12.55 5.2 46 5.6 101600 66
2003-12-09 15:09 51°22.323 3°12.192 5.7 51 5.6 101600 67
2003-12-09 15:10 51°22.294 3°11.837 6.2 58 5.6 101600 68
2003-12-09 15:11 51°22.233 3°11.491 5.4 51 5.6 101600 67
2003-12-09 15:12 51°22.165 3°11.16 5.8 59 5.6 101660 69
2003-12-09 15:13 51°22.085 3°10.816 5.4 59 5.6 101600 66
2003-12-09 15:14 51°22.002 3°10.447 5.4 56 5.7 101600 69
2003-12-09 15:15 51°21.926 3°10.105 5 51 5.7 101600 68
2003-12-09 15:16 51°21.839 3°9.783 5 54 5.7 101600 68
2003-12-09 15:17 51°21.737 3°9.452 4.3 52 5.7 101600 68
2003-12-09 15:18 51°21.622 3°9.154 3.6 42 5.7 101600 67
2003-12-09 15:19 51°21.492 3°8.856 4.3 48 5.7 101600 68
2003-12-09 15:20 51°21.366 3°8.563 3.9 37 5.7 101600 67
2003-12-09 15:21 51°21.24 3°8.277 4.1 44 5.7 101600 68
2003-12-09 15:22 51°21.101 3°7.997 3.1 33 5.7 101600 68
2003-12-09 15:23 51°20.964 3°7.722 3.3 48 5.7 101600 68
2003-12-09 15:24 51°20.832 3°7.458 3.9 49 5.7 101600 66
2003-12-09 15:26 51°20.687 3°7.168 3.3 35 5.8 101600 66
2003-12-09 15:27 51°20.55 3°6.896 4 43 5.7 101600 68
2003-12-09 15:28 51°20.412 3°6.622 3.8 34 5.8 101600 68
2003-12-09 15:29 51°20.28 3°6.343 3.6 36 5.8 101600 69
2003-12-09 15:30 51°20.147 3°6.062 3.9 49 5.8 101600 68
2003-12-09 15:31 51°20.011 3°5.784 4 37 5.8 101600 67
2003-12-09 15:32 51°19.874 3°5.507 4 54 5.8 101600 71
2003-12-09 15:33 51°19.739 3°5.228 3.7 52 5.8 101600 70
2003-12-09 15:34 51°19.605 3°4.948 3.4 47 5.8 101600 69
2003-12-09 15:35 51°19.47 3°4.667 3.9 51 5.8 101590 70
2003-12-09 15:36 51°19.334 3°4.386 3.8 50 5.8 101600 70
2003-12-09 15:37 51°19.202 3°4.104 3.6 42 5.8 101590 70
2003-12-09 15:38 51°19.077 3°3.814 4.2 50 5.8 101590 69
2003-12-09 15:39 51°18.959 3°3.519 4.7 58 5.8 101590 70
2003-12-09 15:40 51°18.837 3°3.229 4.5 47 5.8 101590 69
2003-12-09 15:41 51°18.717 3°2.936 4 53 5.8 101590 70
2003-12-09 15:42 51°18.598 3°2.639 3.9 50 5.8 101590 70
2003-12-09 15:43 51°18.478 3°2.342 4.1 49 5.8 101590 71
2003-12-09 15:44 51°18.354 3°2.05 4.4 47 5.8 101590 70
2003-12-09 15:45 51°18.227 3°1.76 3.5 41 5.8 101590 69
2003-12-09 15:46 51°18.102 3°1.467 4.1 51 5.8 101590 72
2003-12-09 15:47 51°17.968 3°1.152 3.7 52 5.8 101590 72
2003-12-09 15:48 51°17.845 3°0.866 3.7 43 5.8 101590 70
2003-12-09 15:49 51°17.72 3°0.574 3.7 39 5.8 101590 70
2003-12-09 15:50 51°17.595 3°0.28 3.6 47 5.8 101580 71
2003-12-09 15:51 51°17.469 2°59.985 3.9 50 5.8 101580 71
2003-12-09 15:52 51°17.344 2°59.688 3.6 49 5.8 101580 71
2003-12-09 15:53 51°17.22 2°59.39 3.4 57 5.8 101580 70
2003-12-09 15:54 51°17.094 2°59.092 3.3 42 5.8 101580 71
2003-12-09 15:55 51°16.966 2°58.793 3.7 39 5.8 101580 70
2003-12-09 15:56 51°16.837 2°58.486 3.1 51 5.8 101580 72
2003-12-09 15:57 51°16.695 2°58.149 3.5 49 5.8 101580 72
2003-12-09 15:58 51°16.568 2°57.847 3.5 53 5.8 101580 71
2003-12-09 15:59 51°16.44 2°57.541 3.7 31 5.8 101580 70
2003-12-09 16:00 51°16.313 2°57.235 3.8 41 5.8 101580 72
2003-12-09 16:01 51°16.176 2°56.911 3.2 41 5.8 101580 70
2003-12-09 16:02 51°16.049 2°56.611 3.6 33 5.8 101580 70
2003-12-09 16:03 51°15.907 2°56.28 3.8 34 5.8 101590 70
2003-12-09 16:04 51°15.783 2°55.988 3 50 5.8 101610 71
2003-12-09 16:05 51°15.671 2°55.726 2.6 39 5.8 101610 70
2003-12-09 16:06 51°15.554 2°55.451 3.1 48 5.8 101600 72
2003-12-09 16:07 51°15.434 2°55.161 2.8 43 5.8 101590 72
2003-12-09 16:08 51°15.281 2°54.862 2.4 343 5.8 101590 70
2003-12-09 16:09 51°15.084 2°54.771 4.1 326 5.8 101640 71
2003-12-09 16:10 51°14.885 2°54.746 3.9 310 5.8 101640 72
2003-12-09 16:11 51°14.694 2°54.777 5.2 312 5.8 101640 72
2003-12-09 16:12 51°14.521 2°54.854 5.7 41 5.8 101640 71
2003-12-09 16:13 51°14.37 2°55.035 7.5 321 5.8 101630 72
2003-12-09 16:14 51°14.289 2°55.216 5.2 319 5.8 101630 73